sensor_id;sensor_type;location;lat;lon;timestamp;temperature;humidity
39493;DHT22;25176;51.060;3.720;2023-05-07T00:01:01;18.90;84.80
39493;DHT22;25176;51.060;3.720;2023-05-07T00:03:27;18.90;85.30
39493;DHT22;25176;51.060;3.720;2023-05-07T00:05:53;18.90;85.10
39493;DHT22;25176;51.060;3.720;2023-05-07T00:08:18;19.00;84.80
39493;DHT22;25176;51.060;3.720;2023-05-07T00:10:44;19.00;84.80
39493;DHT22;25176;51.060;3.720;2023-05-07T00:13:10;19.00;84.70
39493;DHT22;25176;51.060;3.720;2023-05-07T00:15:35;19.00;84.70
39493;DHT22;25176;51.060;3.720;2023-05-07T00:18:01;18.90;84.80
39493;DHT22;25176;51.060;3.720;2023-05-07T00:20:26;18.90;84.60
39493;DHT22;25176;51.060;3.720;2023-05-07T00:22:52;19.00;84.60
39493;DHT22;25176;51.060;3.720;2023-05-07T00:25:18;19.10;84.60
39493;DHT22;25176;51.060;3.720;2023-05-07T00:27:44;18.90;84.70
39493;DHT22;25176;51.060;3.720;2023-05-07T00:30:10;19.00;84.70
39493;DHT22;25176;51.060;3.720;2023-05-07T00:32:36;18.90;84.70
39493;DHT22;25176;51.060;3.720;2023-05-07T00:35:02;18.90;85.00
39493;DHT22;25176;51.060;3.720;2023-05-07T00:37:27;19.00;84.80
39493;DHT22;25176;51.060;3.720;2023-05-07T00:39:53;19.10;84.60
39493;DHT22;25176;51.060;3.720;2023-05-07T00:42:18;19.10;84.40
39493;DHT22;25176;51.060;3.720;2023-05-07T00:44:44;19.10;84.20
39493;DHT22;25176;51.060;3.720;2023-05-07T00:47:09;19.20;84.30
39493;DHT22;25176;51.060;3.720;2023-05-07T00:49:37;19.20;84.10
39493;DHT22;25176;51.060;3.720;2023-05-07T00:52:04;19.30;83.90
39493;DHT22;25176;51.060;3.720;2023-05-07T00:54:30;19.30;83.70
39493;DHT22;25176;51.060;3.720;2023-05-07T00:56:56;19.30;84.00
39493;DHT22;25176;51.060;3.720;2023-05-07T00:59:21;19.30;83.80
39493;DHT22;25176;51.060;3.720;2023-05-07T01:01:47;19.30;83.80
39493;DHT22;25176;51.060;3.720;2023-05-07T01:04:12;19.30;84.10
39493;DHT22;25176;51.060;3.720;2023-05-07T01:06:38;19.30;84.00
39493;DHT22;25176;51.060;3.720;2023-05-07T01:09:04;19.20;84.10
39493;DHT22;25176;51.060;3.720;2023-05-07T01:11:30;19.10;84.20
39493;DHT22;25176;51.060;3.720;2023-05-07T01:13:55;19.00;84.10
39493;DHT22;25176;51.060;3.720;2023-05-07T01:16:21;19.10;84.00
39493;DHT22;25176;51.060;3.720;2023-05-07T01:18:47;19.10;83.80
39493;DHT22;25176;51.060;3.720;2023-05-07T01:21:14;19.00;83.80
39493;DHT22;25176;51.060;3.720;2023-05-07T01:23:40;19.00;84.30
39493;DHT22;25176;51.060;3.720;2023-05-07T01:26:06;19.10;84.20
39493;DHT22;25176;51.060;3.720;2023-05-07T01:28:32;19.10;83.90
39493;DHT22;25176;51.060;3.720;2023-05-07T01:31:00;19.10;84.00
39493;DHT22;25176;51.060;3.720;2023-05-07T01:33:27;19.00;84.20
39493;DHT22;25176;51.060;3.720;2023-05-07T01:35:53;18.90;84.20
39493;DHT22;25176;51.060;3.720;2023-05-07T01:38:20;18.80;84.80
39493;DHT22;25176;51.060;3.720;2023-05-07T01:40:46;18.70;85.40
39493;DHT22;25176;51.060;3.720;2023-05-07T01:43:12;18.60;86.10
39493;DHT22;25176;51.060;3.720;2023-05-07T01:45:38;18.60;86.50
39493;DHT22;25176;51.060;3.720;2023-05-07T01:48:04;18.50;86.60
39493;DHT22;25176;51.060;3.720;2023-05-07T01:50:30;18.40;87.30
39493;DHT22;25176;51.060;3.720;2023-05-07T01:52:56;18.10;88.60
39493;DHT22;25176;51.060;3.720;2023-05-07T01:55:21;18.00;89.60
39493;DHT22;25176;51.060;3.720;2023-05-07T01:57:47;18.00;89.70
39493;DHT22;25176;51.060;3.720;2023-05-07T02:00:12;17.90;89.80
39493;DHT22;25176;51.060;3.720;2023-05-07T02:02:38;17.90;90.10
39493;DHT22;25176;51.060;3.720;2023-05-07T02:05:04;17.90;90.10
39493;DHT22;25176;51.060;3.720;2023-05-07T02:07:29;17.70;90.40
39493;DHT22;25176;51.060;3.720;2023-05-07T02:09:55;17.70;90.60
39493;DHT22;25176;51.060;3.720;2023-05-07T02:12:20;17.70;90.70
39493;DHT22;25176;51.060;3.720;2023-05-07T02:14:46;17.70;90.80
39493;DHT22;25176;51.060;3.720;2023-05-07T02:17:12;17.70;90.60
39493;DHT22;25176;51.060;3.720;2023-05-07T02:19:37;17.70;90.60
39493;DHT22;25176;51.060;3.720;2023-05-07T02:22:03;17.80;90.30
39493;DHT22;25176;51.060;3.720;2023-05-07T02:24:28;17.80;90.10
39493;DHT22;25176;51.060;3.720;2023-05-07T02:26:54;17.90;90.10
39493;DHT22;25176;51.060;3.720;2023-05-07T02:29:19;17.90;90.10
39493;DHT22;25176;51.060;3.720;2023-05-07T02:31:45;18.00;90.20
39493;DHT22;25176;51.060;3.720;2023-05-07T02:34:10;18.00;90.10
39493;DHT22;25176;51.060;3.720;2023-05-07T02:36:36;17.90;90.40
39493;DHT22;25176;51.060;3.720;2023-05-07T02:39:01;17.80;90.40
39493;DHT22;25176;51.060;3.720;2023-05-07T02:41:27;17.70;91.00
39493;DHT22;25176;51.060;3.720;2023-05-07T02:43:53;17.70;91.20
39493;DHT22;25176;51.060;3.720;2023-05-07T02:46:19;17.70;91.00
39493;DHT22;25176;51.060;3.720;2023-05-07T02:48:44;17.70;90.80
39493;DHT22;25176;51.060;3.720;2023-05-07T02:51:10;17.70;90.80
39493;DHT22;25176;51.060;3.720;2023-05-07T02:53:35;17.60;91.00
39493;DHT22;25176;51.060;3.720;2023-05-07T02:56:01;17.50;91.30
39493;DHT22;25176;51.060;3.720;2023-05-07T02:58:26;17.60;91.00
39493;DHT22;25176;51.060;3.720;2023-05-07T03:00:52;17.60;91.10
39493;DHT22;25176;51.060;3.720;2023-05-07T03:03:18;17.60;91.00
39493;DHT22;25176;51.060;3.720;2023-05-07T03:05:43;17.60;91.00
39493;DHT22;25176;51.060;3.720;2023-05-07T03:08:09;17.70;90.80
39493;DHT22;25176;51.060;3.720;2023-05-07T03:10:35;17.60;90.80
39493;DHT22;25176;51.060;3.720;2023-05-07T03:13:01;17.60;90.90
39493;DHT22;25176;51.060;3.720;2023-05-07T03:15:26;17.70;90.90
39493;DHT22;25176;51.060;3.720;2023-05-07T03:17:52;17.70;90.90
39493;DHT22;25176;51.060;3.720;2023-05-07T03:20:17;17.80;91.00
39493;DHT22;25176;51.060;3.720;2023-05-07T03:22:43;17.70;90.90
39493;DHT22;25176;51.060;3.720;2023-05-07T03:25:08;17.60;90.80
39493;DHT22;25176;51.060;3.720;2023-05-07T03:27:34;17.50;91.30
39493;DHT22;25176;51.060;3.720;2023-05-07T03:30:00;17.60;91.40
39493;DHT22;25176;51.060;3.720;2023-05-07T03:32:25;17.60;91.00
39493;DHT22;25176;51.060;3.720;2023-05-07T03:34:51;17.70;90.90
39493;DHT22;25176;51.060;3.720;2023-05-07T03:37:16;17.60;91.20
39493;DHT22;25176;51.060;3.720;2023-05-07T03:39:42;17.70;91.10
39493;DHT22;25176;51.060;3.720;2023-05-07T03:42:07;17.90;90.70
39493;DHT22;25176;51.060;3.720;2023-05-07T03:44:33;17.70;91.20
39493;DHT22;25176;51.060;3.720;2023-05-07T03:46:58;17.80;91.10
39493;DHT22;25176;51.060;3.720;2023-05-07T03:49:24;17.80;90.70
39493;DHT22;25176;51.060;3.720;2023-05-07T03:51:49;17.90;90.70
39493;DHT22;25176;51.060;3.720;2023-05-07T03:54:15;17.90;90.50
39493;DHT22;25176;51.060;3.720;2023-05-07T03:56:40;18.00;90.80
39493;DHT22;25176;51.060;3.720;2023-05-07T03:59:05;18.10;90.50
39493;DHT22;25176;51.060;3.720;2023-05-07T04:01:31;18.10;90.40
39493;DHT22;25176;51.060;3.720;2023-05-07T04:03:57;18.20;90.40
39493;DHT22;25176;51.060;3.720;2023-05-07T04:06:22;18.20;90.40
39493;DHT22;25176;51.060;3.720;2023-05-07T04:08:48;18.20;90.40
39493;DHT22;25176;51.060;3.720;2023-05-07T04:11:13;18.20;90.40
39493;DHT22;25176;51.060;3.720;2023-05-07T04:13:39;18.20;90.30
39493;DHT22;25176;51.060;3.720;2023-05-07T04:16:04;18.20;90.20
39493;DHT22;25176;51.060;3.720;2023-05-07T04:18:30;18.20;90.40
39493;DHT22;25176;51.060;3.720;2023-05-07T04:20:56;18.20;90.70
39493;DHT22;25176;51.060;3.720;2023-05-07T04:23:21;18.20;90.30
39493;DHT22;25176;51.060;3.720;2023-05-07T04:25:47;18.30;90.30
39493;DHT22;25176;51.060;3.720;2023-05-07T04:28:12;18.40;90.30
39493;DHT22;25176;51.060;3.720;2023-05-07T04:30:38;18.30;90.30
39493;DHT22;25176;51.060;3.720;2023-05-07T04:33:03;18.20;90.30
39493;DHT22;25176;51.060;3.720;2023-05-07T04:35:29;18.10;90.80
39493;DHT22;25176;51.060;3.720;2023-05-07T04:37:54;18.10;90.80
39493;DHT22;25176;51.060;3.720;2023-05-07T04:40:20;18.20;90.90
39493;DHT22;25176;51.060;3.720;2023-05-07T04:42:46;18.20;90.90
39493;DHT22;25176;51.060;3.720;2023-05-07T04:45:11;18.20;91.00
39493;DHT22;25176;51.060;3.720;2023-05-07T04:47:38;18.20;90.60
39493;DHT22;25176;51.060;3.720;2023-05-07T04:50:04;18.10;91.10
39493;DHT22;25176;51.060;3.720;2023-05-07T04:52:29;18.10;91.20
39493;DHT22;25176;51.060;3.720;2023-05-07T04:54:55;18.00;91.30
39493;DHT22;25176;51.060;3.720;2023-05-07T04:57:21;17.90;91.50
39493;DHT22;25176;51.060;3.720;2023-05-07T04:59:46;17.80;91.70
39493;DHT22;25176;51.060;3.720;2023-05-07T05:02:12;17.90;92.00
39493;DHT22;25176;51.060;3.720;2023-05-07T05:04:37;17.90;91.70
39493;DHT22;25176;51.060;3.720;2023-05-07T05:07:03;17.70;92.10
39493;DHT22;25176;51.060;3.720;2023-05-07T05:09:31;17.70;92.40
39493;DHT22;25176;51.060;3.720;2023-05-07T05:11:56;17.60;92.50
39493;DHT22;25176;51.060;3.720;2023-05-07T05:14:22;17.70;92.70
39493;DHT22;25176;51.060;3.720;2023-05-07T05:16:47;17.90;92.50
39493;DHT22;25176;51.060;3.720;2023-05-07T05:19:13;18.10;92.30
39493;DHT22;25176;51.060;3.720;2023-05-07T05:21:38;18.10;91.80
39493;DHT22;25176;51.060;3.720;2023-05-07T05:24:04;18.10;91.80
39493;DHT22;25176;51.060;3.720;2023-05-07T05:26:29;18.20;91.90
39493;DHT22;25176;51.060;3.720;2023-05-07T05:28:55;18.20;91.90
39493;DHT22;25176;51.060;3.720;2023-05-07T05:31:20;18.30;91.90
39493;DHT22;25176;51.060;3.720;2023-05-07T05:33:46;18.30;92.00
39493;DHT22;25176;51.060;3.720;2023-05-07T05:36:12;18.40;91.80
39493;DHT22;25176;51.060;3.720;2023-05-07T05:38:38;18.40;92.00
39493;DHT22;25176;51.060;3.720;2023-05-07T05:41:04;18.30;92.20
39493;DHT22;25176;51.060;3.720;2023-05-07T05:43:30;18.40;92.80
39493;DHT22;25176;51.060;3.720;2023-05-07T05:45:56;18.30;93.20
39493;DHT22;25176;51.060;3.720;2023-05-07T05:48:21;18.20;93.50
39493;DHT22;25176;51.060;3.720;2023-05-07T05:50:47;18.10;93.80
39493;DHT22;25176;51.060;3.720;2023-05-07T05:53:12;18.10;94.10
39493;DHT22;25176;51.060;3.720;2023-05-07T05:55:38;18.10;94.30
39493;DHT22;25176;51.060;3.720;2023-05-07T05:58:03;18.20;94.60
39493;DHT22;25176;51.060;3.720;2023-05-07T06:00:29;18.20;94.50
39493;DHT22;25176;51.060;3.720;2023-05-07T06:02:55;18.30;94.40
39493;DHT22;25176;51.060;3.720;2023-05-07T06:05:20;18.20;94.70
39493;DHT22;25176;51.060;3.720;2023-05-07T06:07:46;18.20;95.10
39493;DHT22;25176;51.060;3.720;2023-05-07T06:10:11;18.10;95.00
39493;DHT22;25176;51.060;3.720;2023-05-07T06:12:37;18.20;95.10
39493;DHT22;25176;51.060;3.720;2023-05-07T06:15:03;18.20;95.40
39493;DHT22;25176;51.060;3.720;2023-05-07T06:17:28;18.00;96.10
39493;DHT22;25176;51.060;3.720;2023-05-07T06:19:54;17.90;96.90
39493;DHT22;25176;51.060;3.720;2023-05-07T06:22:19;17.90;97.80
39493;DHT22;25176;51.060;3.720;2023-05-07T06:24:45;17.80;98.40
39493;DHT22;25176;51.060;3.720;2023-05-07T06:27:11;17.80;99.00
39493;DHT22;25176;51.060;3.720;2023-05-07T06:29:36;17.80;99.30
39493;DHT22;25176;51.060;3.720;2023-05-07T06:32:12;17.90;99.70
39493;DHT22;25176;51.060;3.720;2023-05-07T06:34:38;17.90;99.90
39493;DHT22;25176;51.060;3.720;2023-05-07T06:37:03;18.00;99.90
39493;DHT22;25176;51.060;3.720;2023-05-07T06:39:29;18.10;99.90
39493;DHT22;25176;51.060;3.720;2023-05-07T06:41:54;18.10;99.90
39493;DHT22;25176;51.060;3.720;2023-05-07T06:44:20;18.20;99.90
39493;DHT22;25176;51.060;3.720;2023-05-07T06:46:45;18.20;99.90
39493;DHT22;25176;51.060;3.720;2023-05-07T06:49:14;18.10;99.90
39493;DHT22;25176;51.060;3.720;2023-05-07T06:51:40;18.10;99.90
39493;DHT22;25176;51.060;3.720;2023-05-07T06:54:05;18.20;99.90
39493;DHT22;25176;51.060;3.720;2023-05-07T06:56:31;18.40;99.90
39493;DHT22;25176;51.060;3.720;2023-05-07T06:58:57;18.20;99.90
39493;DHT22;25176;51.060;3.720;2023-05-07T07:01:22;18.20;99.90
39493;DHT22;25176;51.060;3.720;2023-05-07T07:03:48;18.30;99.90
39493;DHT22;25176;51.060;3.720;2023-05-07T07:06:13;18.20;99.90
39493;DHT22;25176;51.060;3.720;2023-05-07T07:08:39;18.20;99.90
39493;DHT22;25176;51.060;3.720;2023-05-07T07:11:05;18.30;99.90
39493;DHT22;25176;51.060;3.720;2023-05-07T07:13:30;18.30;99.90
39493;DHT22;25176;51.060;3.720;2023-05-07T07:15:56;18.20;99.90
39493;DHT22;25176;51.060;3.720;2023-05-07T07:18:21;18.40;99.90
39493;DHT22;25176;51.060;3.720;2023-05-07T07:20:47;18.40;99.90
39493;DHT22;25176;51.060;3.720;2023-05-07T07:23:12;18.60;99.90
39493;DHT22;25176;51.060;3.720;2023-05-07T07:25:38;18.60;99.90
39493;DHT22;25176;51.060;3.720;2023-05-07T07:28:05;18.70;99.90
39493;DHT22;25176;51.060;3.720;2023-05-07T07:30:31;18.60;99.90
39493;DHT22;25176;51.060;3.720;2023-05-07T07:32:56;18.60;99.90
39493;DHT22;25176;51.060;3.720;2023-05-07T07:35:30;18.60;99.90
39493;DHT22;25176;51.060;3.720;2023-05-07T07:37:56;18.60;99.90
39493;DHT22;25176;51.060;3.720;2023-05-07T07:40:22;18.60;99.90
39493;DHT22;25176;51.060;3.720;2023-05-07T07:42:47;18.30;99.90
39493;DHT22;25176;51.060;3.720;2023-05-07T07:45:13;18.30;99.90
39493;DHT22;25176;51.060;3.720;2023-05-07T07:47:41;18.30;99.90
39493;DHT22;25176;51.060;3.720;2023-05-07T07:50:07;18.50;99.90
39493;DHT22;25176;51.060;3.720;2023-05-07T07:52:33;18.40;99.90
39493;DHT22;25176;51.060;3.720;2023-05-07T07:54:58;18.40;99.90
39493;DHT22;25176;51.060;3.720;2023-05-07T07:57:24;18.40;99.90
39493;DHT22;25176;51.060;3.720;2023-05-07T07:59:50;18.40;99.90
39493;DHT22;25176;51.060;3.720;2023-05-07T08:02:16;18.50;99.90
39493;DHT22;25176;51.060;3.720;2023-05-07T08:04:41;18.50;99.90
39493;DHT22;25176;51.060;3.720;2023-05-07T08:07:11;18.50;99.90
39493;DHT22;25176;51.060;3.720;2023-05-07T08:09:37;18.50;99.90
39493;DHT22;25176;51.060;3.720;2023-05-07T08:12:03;18.60;99.90
39493;DHT22;25176;51.060;3.720;2023-05-07T08:14:29;18.70;99.90
39493;DHT22;25176;51.060;3.720;2023-05-07T08:16:55;18.70;99.90
39493;DHT22;25176;51.060;3.720;2023-05-07T08:19:20;18.80;99.90
39493;DHT22;25176;51.060;3.720;2023-05-07T08:21:47;18.80;99.90
39493;DHT22;25176;51.060;3.720;2023-05-07T08:24:15;18.80;99.90
39493;DHT22;25176;51.060;3.720;2023-05-07T08:26:41;18.90;99.90
39493;DHT22;25176;51.060;3.720;2023-05-07T08:29:07;18.80;99.90
39493;DHT22;25176;51.060;3.720;2023-05-07T08:31:32;18.90;99.90
39493;DHT22;25176;51.060;3.720;2023-05-07T08:33:58;18.90;99.90
39493;DHT22;25176;51.060;3.720;2023-05-07T08:36:24;18.90;99.90
39493;DHT22;25176;51.060;3.720;2023-05-07T08:38:51;18.90;99.90
39493;DHT22;25176;51.060;3.720;2023-05-07T08:41:16;19.00;99.90
39493;DHT22;25176;51.060;3.720;2023-05-07T08:43:42;19.00;99.90
39493;DHT22;25176;51.060;3.720;2023-05-07T08:46:09;19.10;99.90
39493;DHT22;25176;51.060;3.720;2023-05-07T08:48:34;19.20;99.90
39493;DHT22;25176;51.060;3.720;2023-05-07T08:51:00;19.30;99.90
39493;DHT22;25176;51.060;3.720;2023-05-07T08:53:26;19.30;99.40
39493;DHT22;25176;51.060;3.720;2023-05-07T08:55:51;19.20;99.50
39493;DHT22;25176;51.060;3.720;2023-05-07T08:58:17;19.30;99.70
39493;DHT22;25176;51.060;3.720;2023-05-07T09:00:43;19.20;99.20
39493;DHT22;25176;51.060;3.720;2023-05-07T09:03:08;19.20;99.60
39493;DHT22;25176;51.060;3.720;2023-05-07T09:05:37;19.20;99.60
39493;DHT22;25176;51.060;3.720;2023-05-07T09:08:03;19.20;99.50
39493;DHT22;25176;51.060;3.720;2023-05-07T09:10:29;19.20;99.70
39493;DHT22;25176;51.060;3.720;2023-05-07T09:12:54;19.30;99.90
39493;DHT22;25176;51.060;3.720;2023-05-07T09:15:20;19.30;99.60
39493;DHT22;25176;51.060;3.720;2023-05-07T09:17:46;19.50;99.60
39493;DHT22;25176;51.060;3.720;2023-05-07T09:20:11;19.60;99.80
39493;DHT22;25176;51.060;3.720;2023-05-07T09:22:37;19.80;99.30
39493;DHT22;25176;51.060;3.720;2023-05-07T09:25:03;19.80;98.90
39493;DHT22;25176;51.060;3.720;2023-05-07T09:27:30;20.00;98.90
39493;DHT22;25176;51.060;3.720;2023-05-07T09:29:55;20.00;98.80
39493;DHT22;25176;51.060;3.720;2023-05-07T09:32:21;20.20;98.80
39493;DHT22;25176;51.060;3.720;2023-05-07T09:34:46;20.30;98.30
39493;DHT22;25176;51.060;3.720;2023-05-07T09:37:13;20.30;97.80
39493;DHT22;25176;51.060;3.720;2023-05-07T09:39:46;20.10;98.20
39493;DHT22;25176;51.060;3.720;2023-05-07T09:42:11;20.20;97.60
39493;DHT22;25176;51.060;3.720;2023-05-07T09:44:38;20.30;97.60
39493;DHT22;25176;51.060;3.720;2023-05-07T09:47:04;20.50;97.60
39493;DHT22;25176;51.060;3.720;2023-05-07T09:49:30;20.60;97.20
39493;DHT22;25176;51.060;3.720;2023-05-07T09:51:57;20.90;96.90
39493;DHT22;25176;51.060;3.720;2023-05-07T09:54:24;20.90;96.80
39493;DHT22;25176;51.060;3.720;2023-05-07T09:56:50;21.00;96.50
39493;DHT22;25176;51.060;3.720;2023-05-07T09:59:16;21.10;96.20
39493;DHT22;25176;51.060;3.720;2023-05-07T10:01:43;21.00;96.00
39493;DHT22;25176;51.060;3.720;2023-05-07T10:04:09;21.20;96.00
39493;DHT22;25176;51.060;3.720;2023-05-07T10:06:35;21.20;95.80
39493;DHT22;25176;51.060;3.720;2023-05-07T10:09:01;21.30;95.70
39493;DHT22;25176;51.060;3.720;2023-05-07T10:11:27;21.50;95.50
39493;DHT22;25176;51.060;3.720;2023-05-07T10:13:53;21.40;95.00
39493;DHT22;25176;51.060;3.720;2023-05-07T10:16:18;21.30;95.40
39493;DHT22;25176;51.060;3.720;2023-05-07T10:18:44;21.40;95.20
39493;DHT22;25176;51.060;3.720;2023-05-07T10:21:16;20.70;96.40
39493;DHT22;25176;51.060;3.720;2023-05-07T10:23:43;20.80;96.10
39493;DHT22;25176;51.060;3.720;2023-05-07T10:26:10;20.50;96.70
39493;DHT22;25176;51.060;3.720;2023-05-07T10:28:37;20.60;96.90
39493;DHT22;25176;51.060;3.720;2023-05-07T10:33:29;19.50;97.70
39493;DHT22;25176;51.060;3.720;2023-05-07T10:35:59;19.70;98.10
39493;DHT22;25176;51.060;3.720;2023-05-07T10:38:26;20.10;98.10
39493;DHT22;25176;51.060;3.720;2023-05-07T10:40:52;20.80;97.70
39493;DHT22;25176;51.060;3.720;2023-05-07T10:43:17;20.70;97.10
39493;DHT22;25176;51.060;3.720;2023-05-07T10:45:43;20.90;96.50
39493;DHT22;25176;51.060;3.720;2023-05-07T10:48:12;20.40;96.50
39493;DHT22;25176;51.060;3.720;2023-05-07T10:50:42;19.50;98.30
39493;DHT22;25176;51.060;3.720;2023-05-07T10:53:26;20.00;98.40
39493;DHT22;25176;51.060;3.720;2023-05-07T10:56:34;20.60;98.00
39493;DHT22;25176;51.060;3.720;2023-05-07T10:58:41;21.20;97.30
39493;DHT22;25176;51.060;3.720;2023-05-07T11:01:06;21.30;95.80
39493;DHT22;25176;51.060;3.720;2023-05-07T11:03:32;21.50;95.50
39493;DHT22;25176;51.060;3.720;2023-05-07T11:06:08;20.90;95.60
39493;DHT22;25176;51.060;3.720;2023-05-07T11:11:17;20.70;96.20
39493;DHT22;25176;51.060;3.720;2023-05-07T11:13:47;20.70;96.00
39493;DHT22;25176;51.060;3.720;2023-05-07T11:16:30;21.00;96.50
39493;DHT22;25176;51.060;3.720;2023-05-07T11:18:58;21.30;95.60
39493;DHT22;25176;51.060;3.720;2023-05-07T11:23:58;22.20;94.80
39493;DHT22;25176;51.060;3.720;2023-05-07T11:26:24;22.50;93.80
39493;DHT22;25176;51.060;3.720;2023-05-07T11:28:50;22.50;93.00
39493;DHT22;25176;51.060;3.720;2023-05-07T11:31:17;22.20;93.80
39493;DHT22;25176;51.060;3.720;2023-05-07T11:33:45;22.10;93.50
39493;DHT22;25176;51.060;3.720;2023-05-07T11:36:11;22.00;93.60
39493;DHT22;25176;51.060;3.720;2023-05-07T11:38:37;22.00;93.30
39493;DHT22;25176;51.060;3.720;2023-05-07T11:41:03;22.00;93.50
39493;DHT22;25176;51.060;3.720;2023-05-07T11:43:30;22.40;93.50
39493;DHT22;25176;51.060;3.720;2023-05-07T11:46:04;22.60;92.70
39493;DHT22;25176;51.060;3.720;2023-05-07T11:48:30;22.60;92.30
39493;DHT22;25176;51.060;3.720;2023-05-07T11:53:24;22.50;92.50
39493;DHT22;25176;51.060;3.720;2023-05-07T11:55:53;22.60;92.60
39493;DHT22;25176;51.060;3.720;2023-05-07T11:58:20;22.70;92.40
39493;DHT22;25176;51.060;3.720;2023-05-07T12:00:53;22.80;92.60
39493;DHT22;25176;51.060;3.720;2023-05-07T12:03:19;23.00;92.60
39493;DHT22;25176;51.060;3.720;2023-05-07T12:05:45;23.10;91.80
39493;DHT22;25176;51.060;3.720;2023-05-07T12:08:17;23.10;91.70
39493;DHT22;25176;51.060;3.720;2023-05-07T12:10:46;23.10;91.30
39493;DHT22;25176;51.060;3.720;2023-05-07T12:13:20;23.00;91.10
39493;DHT22;25176;51.060;3.720;2023-05-07T12:15:45;23.10;91.40
39493;DHT22;25176;51.060;3.720;2023-05-07T12:18:11;23.30;91.10
39493;DHT22;25176;51.060;3.720;2023-05-07T12:20:37;23.40;91.20
39493;DHT22;25176;51.060;3.720;2023-05-07T12:23:03;23.80;90.40
39493;DHT22;25176;51.060;3.720;2023-05-07T12:25:32;24.00;90.00
39493;DHT22;25176;51.060;3.720;2023-05-07T12:27:57;23.80;90.10
39493;DHT22;25176;51.060;3.720;2023-05-07T12:30:25;23.70;89.90
39493;DHT22;25176;51.060;3.720;2023-05-07T12:32:54;23.80;89.40
39493;DHT22;25176;51.060;3.720;2023-05-07T12:35:26;24.00;88.90
39493;DHT22;25176;51.060;3.720;2023-05-07T12:37:56;23.90;88.50
39493;DHT22;25176;51.060;3.720;2023-05-07T12:40:21;23.70;89.80
39493;DHT22;25176;51.060;3.720;2023-05-07T12:42:47;23.90;89.30
39493;DHT22;25176;51.060;3.720;2023-05-07T12:45:17;24.00;89.20
39493;DHT22;25176;51.060;3.720;2023-05-07T12:47:46;24.50;88.00
39493;DHT22;25176;51.060;3.720;2023-05-07T12:50:15;24.80;87.20
39493;DHT22;25176;51.060;3.720;2023-05-07T12:52:41;24.70;86.30
39493;DHT22;25176;51.060;3.720;2023-05-07T12:55:08;24.40;86.60
39493;DHT22;25176;51.060;3.720;2023-05-07T12:57:40;24.80;86.10
39493;DHT22;25176;51.060;3.720;2023-05-07T13:00:06;25.20;84.00
39493;DHT22;25176;51.060;3.720;2023-05-07T13:02:37;25.10;83.30
39493;DHT22;25176;51.060;3.720;2023-05-07T13:05:03;25.00;84.40
39493;DHT22;25176;51.060;3.720;2023-05-07T13:07:28;24.70;83.40
39493;DHT22;25176;51.060;3.720;2023-05-07T13:09:54;24.60;84.70
39493;DHT22;25176;51.060;3.720;2023-05-07T13:12:19;24.80;84.70
39493;DHT22;25176;51.060;3.720;2023-05-07T13:14:47;24.80;83.90
39493;DHT22;25176;51.060;3.720;2023-05-07T13:17:15;24.70;84.40
39493;DHT22;25176;51.060;3.720;2023-05-07T13:19:41;24.90;83.40
39493;DHT22;25176;51.060;3.720;2023-05-07T13:22:06;25.20;83.10
39493;DHT22;25176;51.060;3.720;2023-05-07T13:24:32;25.10;82.50
39493;DHT22;25176;51.060;3.720;2023-05-07T13:26:57;25.00;82.30
39493;DHT22;25176;51.060;3.720;2023-05-07T13:29:23;25.30;81.90
39493;DHT22;25176;51.060;3.720;2023-05-07T13:31:57;25.10;82.10
39493;DHT22;25176;51.060;3.720;2023-05-07T13:34:23;25.20;81.80
39493;DHT22;25176;51.060;3.720;2023-05-07T13:36:48;24.90;81.00
39493;DHT22;25176;51.060;3.720;2023-05-07T13:39:14;24.90;81.70
39493;DHT22;25176;51.060;3.720;2023-05-07T13:41:39;25.10;81.40
39493;DHT22;25176;51.060;3.720;2023-05-07T13:44:05;25.50;80.90
39493;DHT22;25176;51.060;3.720;2023-05-07T13:46:30;25.40;81.30
39493;DHT22;25176;51.060;3.720;2023-05-07T13:48:56;25.10;80.70
39493;DHT22;25176;51.060;3.720;2023-05-07T13:51:21;24.70;82.20
39493;DHT22;25176;51.060;3.720;2023-05-07T13:53:47;24.80;82.60
39493;DHT22;25176;51.060;3.720;2023-05-07T13:56:14;24.70;82.50
39493;DHT22;25176;51.060;3.720;2023-05-07T13:58:39;24.60;82.10
39493;DHT22;25176;51.060;3.720;2023-05-07T14:01:05;24.60;81.80
39493;DHT22;25176;51.060;3.720;2023-05-07T14:03:30;24.30;83.00
39493;DHT22;25176;51.060;3.720;2023-05-07T14:05:58;24.30;83.50
39493;DHT22;25176;51.060;3.720;2023-05-07T14:08:25;24.00;83.30
39493;DHT22;25176;51.060;3.720;2023-05-07T14:10:50;23.90;83.50
39493;DHT22;25176;51.060;3.720;2023-05-07T14:13:16;23.90;83.60
39493;DHT22;25176;51.060;3.720;2023-05-07T14:15:41;23.50;84.00
39493;DHT22;25176;51.060;3.720;2023-05-07T14:18:11;23.30;85.50
39493;DHT22;25176;51.060;3.720;2023-05-07T14:20:37;23.00;86.70
39493;DHT22;25176;51.060;3.720;2023-05-07T14:23:03;23.00;87.60
39493;DHT22;25176;51.060;3.720;2023-05-07T14:25:28;23.00;88.50
39493;DHT22;25176;51.060;3.720;2023-05-07T14:27:54;23.00;89.30
39493;DHT22;25176;51.060;3.720;2023-05-07T14:30:19;22.60;90.70
39493;DHT22;25176;51.060;3.720;2023-05-07T14:32:45;22.50;91.50
39493;DHT22;25176;51.060;3.720;2023-05-07T14:35:10;22.20;92.20
39493;DHT22;25176;51.060;3.720;2023-05-07T14:37:36;22.10;92.80
39493;DHT22;25176;51.060;3.720;2023-05-07T14:40:01;21.90;93.10
39493;DHT22;25176;51.060;3.720;2023-05-07T14:42:27;21.70;93.80
39493;DHT22;25176;51.060;3.720;2023-05-07T14:44:53;21.70;94.10
39493;DHT22;25176;51.060;3.720;2023-05-07T14:47:18;21.70;94.10
39493;DHT22;25176;51.060;3.720;2023-05-07T14:49:44;21.70;94.50
39493;DHT22;25176;51.060;3.720;2023-05-07T14:52:09;21.90;94.30
39493;DHT22;25176;51.060;3.720;2023-05-07T14:54:35;21.80;94.70
39493;DHT22;25176;51.060;3.720;2023-05-07T14:57:01;21.90;94.60
39493;DHT22;25176;51.060;3.720;2023-05-07T14:59:26;21.70;94.70
39493;DHT22;25176;51.060;3.720;2023-05-07T15:01:52;21.80;94.40
39493;DHT22;25176;51.060;3.720;2023-05-07T15:04:18;21.80;94.40
39493;DHT22;25176;51.060;3.720;2023-05-07T15:06:43;21.80;94.70
39493;DHT22;25176;51.060;3.720;2023-05-07T15:09:09;21.80;94.70
39493;DHT22;25176;51.060;3.720;2023-05-07T15:11:34;21.90;94.30
39493;DHT22;25176;51.060;3.720;2023-05-07T15:14:00;22.10;94.20
39493;DHT22;25176;51.060;3.720;2023-05-07T15:16:26;22.30;94.20
39493;DHT22;25176;51.060;3.720;2023-05-07T15:18:51;22.40;93.80
39493;DHT22;25176;51.060;3.720;2023-05-07T15:21:17;22.40;93.80
39493;DHT22;25176;51.060;3.720;2023-05-07T15:23:42;22.30;93.90
39493;DHT22;25176;51.060;3.720;2023-05-07T15:26:09;22.60;93.20
39493;DHT22;25176;51.060;3.720;2023-05-07T15:28:35;22.70;92.70
39493;DHT22;25176;51.060;3.720;2023-05-07T15:31:00;22.80;92.40
39493;DHT22;25176;51.060;3.720;2023-05-07T15:33:26;23.00;92.60